createdAt,value
2023-02-27T00:02:02.957Z,3.05
2023-02-27T00:04:29.964Z,3.55
2023-02-27T00:06:57.411Z,3.53
2023-02-27T00:09:24.310Z,3.40
2023-02-27T00:11:52.081Z,3.33
2023-02-27T00:14:19.023Z,2.78
2023-02-27T00:16:45.993Z,3.78
2023-02-27T00:19:13.552Z,3.13
2023-02-27T00:21:41.450Z,2.88
2023-02-27T00:24:08.477Z,3.28
2023-02-27T00:26:35.582Z,3.00
2023-02-27T00:29:02.530Z,2.70
2023-02-27T00:31:30.358Z,2.78
2023-02-27T00:33:57.931Z,2.90
2023-02-27T00:36:24.822Z,3.30
2023-02-27T00:38:51.933Z,3.10
2023-02-27T00:41:18.911Z,2.50
2023-02-27T00:43:45.799Z,3.15
2023-02-27T00:46:12.713Z,2.90
2023-02-27T00:48:39.738Z,2.90
2023-02-27T00:51:08.612Z,2.63
2023-02-27T00:53:35.573Z,2.92
2023-02-27T00:56:02.560Z,2.72
2023-02-27T00:58:32.351Z,3.45
2023-02-27T01:01:00.466Z,2.90
2023-02-27T01:03:28.771Z,3.03
2023-02-27T01:05:55.631Z,3.05
2023-02-27T01:08:24.757Z,2.70
2023-02-27T01:10:53.767Z,2.70
2023-02-27T01:13:21.099Z,2.83
2023-02-27T01:15:47.974Z,3.10
2023-02-27T01:18:14.906Z,2.92
2023-02-27T01:20:41.796Z,3.42
2023-02-27T01:23:08.841Z,3.17
2023-02-27T01:25:35.722Z,3.13
2023-02-27T01:28:02.675Z,3.90
2023-02-27T01:30:29.644Z,3.30
2023-02-27T01:32:57.016Z,2.60
2023-02-27T01:35:23.911Z,2.90
2023-02-27T01:37:50.978Z,2.60
2023-02-27T01:40:17.991Z,3.05
2023-02-27T01:42:47.357Z,2.95
2023-02-27T01:45:28.724Z,3.60
2023-02-27T01:48:12.325Z,3.55
2023-02-27T01:50:45.050Z,3.13
2023-02-27T01:53:12.589Z,3.28
2023-02-27T01:55:40.129Z,4.05
2023-02-27T01:58:09.982Z,3.88
2023-02-27T02:00:37.548Z,3.92
2023-02-27T02:03:11.675Z,2.95
2023-02-27T02:05:39.338Z,3.15
2023-02-27T02:08:08.826Z,3.50
2023-02-27T02:10:36.226Z,3.20
2023-02-27T02:13:04.134Z,2.97
2023-02-27T02:15:39.224Z,2.90
2023-02-27T02:18:30.989Z,2.50
2023-02-27T02:21:20.816Z,3.13
2023-02-27T02:24:03.076Z,2.85
2023-02-27T02:26:40.449Z,2.90
2023-02-27T02:29:48.307Z,2.42
2023-02-27T02:32:27.383Z,2.22
2023-02-27T02:35:28.637Z,2.50
2023-02-27T02:38:07.228Z,2.35
2023-02-27T02:40:48.823Z,2.97
2023-02-27T02:43:31.051Z,2.35
2023-02-27T02:46:16.382Z,2.47
2023-02-27T02:49:12.407Z,1.98
2023-02-27T02:51:50.729Z,2.47
2023-02-27T02:54:48.007Z,1.85
2023-02-27T02:57:26.861Z,2.28
2023-02-27T03:00:28.934Z,2.05
2023-02-27T03:03:27.528Z,2.05
2023-02-27T03:06:09.520Z,3.08
2023-02-27T03:08:42.793Z,2.90
2023-02-27T03:11:09.957Z,3.05
2023-02-27T03:13:40.285Z,3.55
2023-02-27T03:16:12.716Z,2.97
2023-02-27T03:19:03.657Z,3.28
2023-02-27T03:21:37.632Z,3.28
2023-02-27T03:24:09.076Z,3.10
2023-02-27T03:26:42.502Z,3.28
2023-02-27T03:29:16.859Z,3.10
2023-02-27T03:32:00.748Z,3.10
2023-02-27T03:34:33.207Z,3.92
2023-02-27T03:37:22.709Z,3.47
2023-02-27T03:39:55.339Z,3.55
2023-02-27T03:42:53.481Z,4.47
2023-02-27T03:45:40.111Z,3.45
2023-02-27T03:48:09.142Z,3.67
2023-02-27T03:50:37.685Z,4.65
2023-02-27T03:53:12.523Z,3.00
2023-02-27T03:55:43.095Z,3.28
2023-02-27T03:58:10.292Z,3.20
2023-02-27T04:00:37.748Z,3.30
2023-02-27T04:03:06.085Z,3.42
2023-02-27T04:05:33.694Z,3.65
2023-02-27T04:08:39.583Z,3.17
2023-02-27T04:14:12.576Z,3.50
2023-02-27T04:17:17.570Z,3.38
2023-02-27T04:20:05.450Z,3.30
2023-02-27T04:23:02.659Z,2.72
2023-02-27T04:25:42.453Z,2.80
2023-02-27T04:28:21.966Z,2.80
2023-02-27T04:31:10.097Z,3.05
2023-02-27T04:33:49.601Z,3.40
2023-02-27T04:36:33.038Z,3.25
2023-02-27T04:39:23.186Z,3.00
2023-02-27T04:41:58.444Z,3.92
2023-02-27T04:44:27.664Z,3.35
2023-02-27T04:46:57.777Z,3.42
2023-02-27T04:49:40.011Z,4.57
2023-02-27T04:52:21.340Z,3.45
2023-02-27T04:55:00.683Z,4.07
2023-02-27T04:57:35.823Z,3.40
2023-02-27T05:00:07.743Z,3.45
2023-02-27T05:02:45.423Z,2.85
2023-02-27T05:05:19.691Z,3.42
2023-02-27T05:07:51.884Z,4.30
2023-02-27T05:10:18.923Z,4.10
2023-02-27T05:12:50.849Z,5.38
2023-02-27T05:15:27.210Z,4.18
2023-02-27T05:18:04.525Z,3.22
2023-02-27T05:20:42.192Z,3.33
2023-02-27T05:23:14.913Z,3.75
2023-02-27T05:25:50.372Z,4.43
2023-02-27T05:28:38.691Z,3.25
2023-02-27T05:31:18.150Z,3.97
2023-02-27T05:33:52.144Z,3.63
2023-02-27T05:36:24.679Z,3.63
2023-02-27T05:39:04.638Z,3.22
2023-02-27T05:41:47.481Z,3.05
2023-02-27T05:44:25.948Z,3.15
2023-02-27T05:46:58.897Z,3.92
2023-02-27T05:49:33.092Z,4.10
2023-02-27T05:52:04.708Z,3.65
2023-02-27T05:54:57.366Z,3.92
2023-02-27T05:57:33.638Z,3.75
2023-02-27T06:00:21.677Z,4.78
2023-02-27T06:02:49.088Z,4.07
2023-02-27T06:05:18.547Z,6.22
2023-02-27T06:07:45.734Z,5.40
2023-02-27T06:10:17.832Z,6.20
2023-02-27T06:12:44.824Z,4.90
2023-02-27T06:15:12.952Z,5.22
2023-02-27T06:17:39.960Z,3.85
2023-02-27T06:20:08.333Z,5.78
2023-02-27T06:22:35.382Z,5.60
2023-02-27T06:25:02.876Z,5.22
2023-02-27T06:27:30.216Z,4.80
2023-02-27T06:29:57.755Z,4.78
2023-02-27T06:32:25.905Z,4.40
2023-02-27T06:34:53.569Z,4.28
2023-02-27T06:37:21.885Z,3.47
2023-02-27T06:39:49.584Z,4.07
2023-02-27T06:42:17.254Z,3.58
2023-02-27T06:44:44.306Z,4.68
2023-02-27T06:47:11.249Z,5.28
2023-02-27T06:49:38.266Z,4.18
2023-02-27T06:52:05.424Z,4.10
2023-02-27T06:54:32.429Z,4.35
2023-02-27T06:56:59.656Z,4.65
2023-02-27T06:59:26.690Z,4.10
2023-02-27T07:01:53.876Z,4.70
2023-02-27T07:04:21.021Z,4.05
2023-02-27T07:07:35.893Z,3.20
2023-02-27T07:09:36.248Z,4.13
2023-02-27T07:12:04.408Z,3.85
2023-02-27T07:14:31.350Z,4.63
2023-02-27T07:16:59.482Z,3.10
2023-02-27T07:19:26.482Z,3.58
2023-02-27T07:21:53.386Z,4.03
2023-02-27T07:24:20.391Z,3.28
2023-02-27T07:26:47.297Z,3.50
2023-02-27T07:29:15.160Z,4.05
2023-02-27T07:31:42.255Z,4.05
2023-02-27T07:34:11.934Z,2.97
2023-02-27T07:36:39.473Z,4.38
2023-02-27T07:39:10.753Z,3.50
2023-02-27T07:41:37.700Z,3.17
2023-02-27T07:44:07.068Z,3.72
2023-02-27T07:46:34.221Z,2.97
2023-02-27T07:49:01.233Z,3.45
2023-02-27T07:51:31.518Z,3.35
2023-02-27T07:53:58.680Z,3.45
2023-02-27T07:56:28.500Z,3.47
2023-02-27T07:58:55.821Z,3.72
2023-02-27T08:01:22.879Z,2.97
2023-02-27T08:03:50.317Z,5.18
2023-02-27T08:06:17.229Z,4.82
2023-02-27T08:08:44.414Z,3.58
2023-02-27T08:11:11.342Z,3.00
2023-02-27T08:16:25.883Z,2.50
2023-02-27T08:18:53.178Z,2.58
2023-02-27T08:21:20.374Z,2.78
2023-02-27T08:23:47.302Z,2.90
2023-02-27T08:26:15.577Z,2.58
2023-02-27T08:28:45.992Z,2.92
2023-02-27T08:33:48.292Z,2.28
2023-02-27T08:36:15.518Z,2.38
2023-02-27T08:38:43.362Z,2.65
2023-02-27T08:41:13.363Z,2.50
2023-02-27T08:43:40.346Z,2.17
2023-02-27T08:46:07.394Z,2.03
2023-02-27T08:48:34.382Z,2.08
2023-02-27T08:51:01.331Z,2.00
2023-02-27T08:53:28.459Z,1.98
2023-02-27T08:55:55.576Z,1.88
2023-02-27T08:58:22.440Z,2.22
2023-02-27T09:00:49.389Z,2.15
2023-02-27T09:03:16.359Z,1.88
2023-02-27T09:05:46.308Z,1.42
2023-02-27T09:08:13.208Z,2.60
2023-02-27T09:10:40.235Z,2.10
2023-02-27T09:13:07.514Z,2.35
2023-02-27T09:15:38.081Z,1.92
2023-02-27T09:18:07.095Z,2.47
2023-02-27T09:20:38.077Z,2.22
2023-02-27T09:23:04.994Z,2.17
2023-02-27T09:25:32.129Z,2.20
2023-02-27T09:27:59.521Z,2.40
2023-02-27T09:30:26.893Z,2.30
2023-02-27T09:32:53.994Z,2.03
2023-02-27T09:35:21.505Z,1.73
2023-02-27T09:37:49.796Z,1.38
2023-02-27T09:40:41.254Z,2.30
2023-02-27T09:43:16.511Z,2.28
2023-02-27T09:45:46.086Z,2.22
2023-02-27T09:48:34.576Z,2.10
2023-02-27T09:51:02.443Z,2.08
2023-02-27T09:53:34.917Z,2.20
2023-02-27T09:56:22.534Z,1.83
2023-02-27T09:59:04.231Z,2.15
2023-02-27T10:01:33.522Z,1.90
2023-02-27T10:04:19.793Z,2.40
2023-02-27T10:06:56.897Z,2.42
2023-02-27T10:09:32.854Z,1.85
2023-02-27T10:12:02.613Z,1.98
2023-02-27T10:14:35.686Z,2.03
2023-02-27T10:17:06.868Z,2.45
2023-02-27T10:19:37.314Z,1.58
2023-02-27T10:24:49.245Z,1.83
2023-02-27T10:27:20.274Z,2.13
2023-02-27T10:29:47.980Z,1.85
2023-02-27T10:32:33.483Z,1.42
2023-02-27T10:35:27.900Z,1.60
2023-02-27T10:38:14.839Z,1.65
2023-02-27T10:40:42.997Z,2.20
2023-02-27T10:43:15.881Z,1.75
2023-02-27T10:45:43.975Z,1.73
2023-02-27T10:48:12.028Z,1.90
2023-02-27T10:50:42.640Z,2.58
2023-02-27T10:53:25.544Z,2.03
2023-02-27T10:56:04.433Z,1.40
2023-02-27T10:58:37.175Z,1.73
2023-02-27T11:01:12.877Z,1.90
2023-02-27T11:03:42.498Z,1.30
2023-02-27T11:06:29.918Z,1.25
2023-02-27T11:09:13.851Z,2.13
2023-02-27T11:11:40.919Z,2.00
2023-02-27T11:14:31.771Z,1.90
2023-02-27T11:19:35.325Z,1.60
2023-02-27T11:22:29.764Z,2.00
2023-02-27T11:25:21.354Z,1.67
2023-02-27T11:27:49.403Z,1.45
2023-02-27T11:30:28.886Z,1.60
2023-02-27T11:32:59.018Z,1.67
2023-02-27T11:35:33.513Z,1.25
2023-02-27T11:38:03.218Z,0.95
2023-02-27T11:40:37.699Z,1.48
2023-02-27T11:43:18.957Z,1.00
2023-02-27T11:46:04.751Z,1.55
2023-02-27T11:48:50.326Z,1.38
2023-02-27T11:51:48.823Z,1.55
2023-02-27T11:54:25.403Z,1.48
2023-02-27T11:57:05.808Z,1.20
2023-02-27T11:59:49.654Z,1.88
2023-02-27T12:02:39.365Z,1.50
2023-02-27T12:05:20.631Z,1.50
2023-02-27T12:08:02.013Z,1.10
2023-02-27T12:10:35.592Z,1.45
2023-02-27T12:13:04.528Z,1.70
2023-02-27T12:15:40.263Z,1.20
2023-02-27T12:18:31.331Z,1.75
2023-02-27T12:21:13.425Z,1.45
2023-02-27T12:23:46.540Z,1.63
2023-02-27T12:26:34.631Z,1.88
2023-02-27T12:29:39.301Z,1.63
2023-02-27T12:32:09.125Z,1.55
2023-02-27T12:34:47.333Z,1.60
2023-02-27T12:37:22.137Z,1.25
2023-02-27T12:39:49.222Z,1.40
2023-02-27T12:42:44.214Z,1.48
2023-02-27T12:45:38.108Z,1.52
2023-02-27T12:48:13.953Z,1.40
2023-02-27T12:50:50.063Z,1.20
2023-02-27T12:53:54.493Z,1.27
2023-02-27T12:56:26.958Z,1.50
2023-02-27T12:59:32.488Z,1.55
2023-02-27T13:02:25.369Z,1.55
2023-02-27T13:05:01.048Z,1.70
2023-02-27T13:07:46.774Z,2.10
2023-02-27T13:10:27.638Z,1.50
2023-02-27T13:13:20.715Z,1.75
2023-02-27T13:15:55.607Z,1.92
2023-02-27T13:18:41.688Z,1.60
2023-02-27T13:21:12.540Z,1.67
2023-02-27T13:23:44.249Z,2.10
2023-02-27T13:26:22.828Z,1.90
2023-02-27T13:28:51.672Z,1.92
2023-02-27T13:31:37.450Z,2.20
2023-02-27T13:34:27.322Z,2.55
2023-02-27T13:37:06.334Z,1.70
2023-02-27T13:39:50.324Z,2.03
2023-02-27T13:42:26.299Z,1.52
2023-02-27T13:44:54.329Z,1.17
2023-02-27T13:47:33.019Z,2.10
2023-02-27T13:50:04.242Z,1.90
2023-02-27T13:52:36.366Z,1.95
2023-02-27T13:55:31.263Z,1.42
2023-02-27T13:58:00.888Z,1.63
2023-02-27T14:00:30.522Z,1.40
2023-02-27T14:03:01.117Z,1.30
2023-02-27T14:05:41.368Z,1.95
2023-02-27T14:08:28.197Z,1.90
2023-02-27T14:11:10.645Z,2.17
2023-02-27T14:13:54.722Z,2.28
2023-02-27T14:16:44.202Z,2.08
2023-02-27T14:19:17.856Z,1.13
2023-02-27T14:22:24.571Z,1.92
2023-02-27T14:25:03.438Z,1.92
2023-02-27T14:27:58.707Z,1.13
2023-02-27T14:30:33.152Z,1.90
2023-02-27T14:33:11.654Z,1.65
2023-02-27T14:35:38.933Z,2.00
2023-02-27T14:38:11.378Z,1.80
2023-02-27T14:40:58.185Z,2.00
2023-02-27T14:43:46.769Z,2.05
2023-02-27T14:46:26.970Z,2.30
2023-02-27T14:49:00.222Z,1.65
2023-02-27T14:51:30.446Z,1.90
2023-02-27T14:54:06.325Z,2.03
2023-02-27T14:56:34.294Z,2.28
2023-02-27T14:59:04.650Z,1.88
2023-02-27T15:01:35.905Z,2.00
2023-02-27T15:04:04.833Z,1.10
2023-02-27T15:06:44.032Z,1.95
2023-02-27T15:09:34.445Z,1.73
2023-02-27T15:12:04.510Z,1.92
2023-02-27T15:17:05.004Z,1.30
2023-02-27T15:19:32.284Z,2.42
2023-02-27T15:22:16.937Z,2.03
2023-02-27T15:24:50.489Z,1.42
2023-02-27T15:27:21.024Z,1.83
2023-02-27T15:29:54.198Z,1.80
2023-02-27T15:32:27.268Z,1.70
2023-02-27T15:34:55.562Z,1.63
2023-02-27T15:37:28.873Z,1.77
2023-02-27T15:39:56.664Z,1.80
2023-02-27T15:42:30.673Z,1.95
2023-02-27T15:44:58.683Z,1.70
2023-02-27T15:47:33.004Z,1.70
2023-02-27T15:50:27.070Z,1.60
2023-02-27T15:53:02.650Z,1.70
2023-02-27T15:55:33.998Z,1.80
2023-02-27T15:58:03.466Z,1.92
2023-02-27T16:00:34.543Z,1.77
2023-02-27T16:03:01.666Z,1.40
2023-02-27T16:05:35.545Z,2.28
2023-02-27T16:08:04.159Z,1.75
2023-02-27T16:10:45.528Z,2.28
2023-02-27T16:13:27.457Z,1.77
2023-02-27T16:16:03.364Z,2.60
2023-02-27T16:18:36.524Z,2.60
2023-02-27T16:21:16.812Z,2.28
2023-02-27T16:23:44.851Z,1.48
2023-02-27T16:26:23.673Z,2.28
2023-02-27T16:29:15.419Z,1.88
2023-02-27T16:31:55.434Z,2.03
2023-02-27T16:34:28.041Z,1.60
2023-02-27T16:37:03.917Z,2.17
2023-02-27T16:39:31.937Z,2.22
2023-02-27T16:42:00.520Z,2.53
2023-02-27T16:44:29.406Z,2.58
2023-02-27T16:46:58.723Z,2.45
2023-02-27T16:49:33.201Z,1.77
2023-02-27T16:52:16.314Z,2.28
2023-02-27T16:54:43.806Z,2.05
2023-02-27T16:57:11.419Z,2.33
2023-02-27T16:59:40.563Z,2.22
2023-02-27T17:02:13.328Z,2.97
2023-02-27T17:04:44.131Z,2.00
2023-02-27T17:07:15.933Z,2.60
2023-02-27T17:09:45.249Z,2.10
2023-02-27T17:12:12.338Z,2.97
2023-02-27T17:14:39.356Z,2.25
2023-02-27T17:17:07.007Z,1.63
2023-02-27T17:19:34.428Z,2.58
2023-02-27T17:22:01.406Z,1.85
2023-02-27T17:24:28.330Z,2.15
2023-02-27T17:26:56.050Z,2.00
2023-02-27T17:29:24.203Z,2.00
2023-02-27T17:31:51.703Z,2.25
2023-02-27T17:34:18.853Z,2.13
2023-02-27T17:36:45.760Z,3.30
2023-02-27T17:39:14.989Z,2.47
2023-02-27T17:41:43.422Z,3.03
2023-02-27T17:44:11.966Z,2.28
2023-02-27T17:46:39.761Z,2.97
2023-02-27T17:49:07.275Z,2.03
2023-02-27T17:51:34.274Z,2.10
2023-02-27T17:54:03.798Z,2.10
2023-02-27T17:56:31.712Z,2.17
2023-02-27T17:58:58.764Z,1.88
2023-02-27T18:01:27.021Z,1.90
2023-02-27T18:03:55.106Z,2.97
2023-02-27T18:06:23.271Z,2.25
2023-02-27T18:08:50.444Z,2.58
2023-02-27T18:11:19.971Z,2.13
2023-02-27T18:13:47.248Z,1.87
2023-02-27T18:16:14.690Z,1.88
2023-02-27T18:18:43.004Z,2.30
2023-02-27T18:21:15.884Z,2.17
2023-02-27T18:23:43.911Z,2.50
2023-02-27T18:26:28.515Z,1.88
2023-02-27T18:29:00.355Z,2.28
2023-02-27T18:31:31.623Z,2.38
2023-02-27T18:33:59.638Z,2.83
2023-02-27T18:36:27.184Z,2.85
2023-02-27T18:38:54.415Z,2.67
2023-02-27T18:41:21.424Z,2.80
2023-02-27T18:43:48.298Z,3.03
2023-02-27T18:46:15.279Z,3.13
2023-02-27T18:48:44.745Z,2.30
2023-02-27T18:51:14.665Z,3.00
2023-02-27T18:53:44.821Z,2.15
2023-02-27T18:56:13.926Z,3.50
2023-02-27T18:58:42.470Z,2.80
2023-02-27T19:01:20.244Z,2.47
2023-02-27T19:03:47.518Z,2.00
2023-02-27T19:06:14.694Z,2.17
2023-02-27T19:08:41.677Z,3.00
2023-02-27T19:11:09.228Z,2.17
2023-02-27T19:13:36.185Z,2.50
2023-02-27T19:16:07.149Z,2.25
2023-02-27T19:18:34.203Z,2.63
2023-02-27T19:21:05.631Z,2.30
2023-02-27T19:23:32.554Z,2.33
2023-02-27T19:26:01.048Z,2.35
2023-02-27T19:28:28.264Z,3.03
2023-02-27T19:30:55.186Z,2.75
2023-02-27T19:33:22.104Z,2.38
2023-02-27T19:35:51.973Z,2.60
2023-02-27T19:38:18.912Z,2.05
2023-02-27T19:40:45.868Z,2.10
2023-02-27T19:43:15.359Z,1.67
2023-02-27T19:45:42.582Z,2.50
2023-02-27T19:48:11.354Z,2.05
2023-02-27T19:50:40.380Z,1.92
2023-02-27T19:53:07.310Z,1.75
2023-02-27T19:55:34.339Z,2.47
2023-02-27T19:58:01.660Z,1.85
2023-02-27T20:00:29.587Z,1.40
2023-02-27T20:02:56.898Z,1.50
2023-02-27T20:05:24.736Z,1.42
2023-02-27T20:07:53.081Z,1.45
2023-02-27T20:10:20.067Z,2.05
2023-02-27T20:12:47.047Z,1.45
2023-02-27T20:15:14.268Z,1.70
2023-02-27T20:17:42.160Z,2.20
2023-02-27T20:20:10.036Z,1.30
2023-02-27T20:22:38.235Z,1.58
2023-02-27T20:25:05.412Z,1.80
2023-02-27T20:27:34.400Z,1.45
2023-02-27T20:30:01.729Z,1.45
2023-02-27T20:32:28.806Z,1.50
2023-02-27T20:34:56.785Z,1.70
2023-02-27T20:37:23.967Z,2.13
2023-02-27T20:39:50.961Z,1.85
2023-02-27T20:42:18.026Z,1.83
2023-02-27T20:44:44.988Z,1.48
2023-02-27T20:47:11.959Z,1.38
2023-02-27T20:49:39.241Z,1.95
2023-02-27T20:52:06.245Z,1.77
2023-02-27T20:54:33.229Z,1.77
2023-02-27T20:57:00.143Z,1.60
2023-02-27T20:59:27.247Z,1.17
2023-02-27T21:01:55.002Z,2.15
2023-02-27T21:04:43.017Z,2.10
2023-02-27T21:07:12.752Z,2.20
2023-02-27T21:09:39.972Z,1.90
2023-02-27T21:12:07.376Z,1.85
2023-02-27T21:14:34.561Z,1.63
2023-02-27T21:17:01.756Z,1.73
2023-02-27T21:19:28.903Z,1.60
2023-02-27T21:21:56.022Z,1.50
2023-02-27T21:24:23.012Z,1.70
2023-02-27T21:26:49.970Z,2.15
2023-02-27T21:29:21.189Z,3.25
2023-02-27T21:31:49.523Z,2.22
2023-02-27T21:34:20.189Z,1.83
2023-02-27T21:36:47.592Z,2.38
2023-02-27T21:39:20.815Z,2.10
2023-02-27T21:41:49.259Z,2.10
2023-02-27T21:44:19.821Z,1.38
2023-02-27T21:46:47.144Z,1.90
2023-02-27T21:49:18.036Z,2.28
2023-02-27T21:51:45.730Z,2.10
2023-02-27T21:54:15.070Z,1.85
2023-02-27T21:56:43.192Z,2.38
2023-02-27T21:59:10.797Z,1.98
2023-02-27T22:01:38.990Z,2.05
2023-02-27T22:04:06.787Z,2.00
2023-02-27T22:06:35.379Z,1.70
2023-02-27T22:09:05.400Z,2.13
2023-02-27T22:11:34.357Z,2.00
2023-02-27T22:14:02.280Z,2.58
2023-02-27T22:16:29.498Z,2.22
2023-02-27T22:18:56.482Z,2.08
2023-02-27T22:21:25.471Z,2.30
2023-02-27T22:23:53.567Z,1.70
2023-02-27T22:26:24.346Z,2.28
2023-02-27T22:28:52.773Z,2.17
2023-02-27T22:31:26.531Z,2.08
2023-02-27T22:33:55.648Z,2.85
2023-02-27T22:36:25.136Z,2.22
2023-02-27T22:38:52.894Z,2.10
2023-02-27T22:41:26.517Z,2.40
2023-02-27T22:43:53.862Z,1.65
2023-02-27T22:46:32.844Z,1.85
2023-02-27T22:49:03.898Z,2.28
2023-02-27T22:51:31.383Z,1.85
2023-02-27T22:54:01.818Z,2.17
2023-02-27T22:58:56.261Z,1.92
2023-02-27T23:01:26.271Z,2.10
2023-02-27T23:03:56.270Z,2.38
2023-02-27T23:06:26.551Z,2.25
2023-02-27T23:08:53.448Z,2.22
2023-02-27T23:11:20.796Z,2.15
2023-02-27T23:13:47.952Z,3.17
2023-02-27T23:16:15.212Z,2.38
2023-02-27T23:18:49.619Z,2.25
2023-02-27T23:21:18.715Z,2.80
2023-02-27T23:23:46.043Z,2.33
2023-02-27T23:26:14.157Z,3.30
2023-02-27T23:28:41.180Z,2.70
2023-02-27T23:31:10.859Z,3.07
2023-02-27T23:33:38.052Z,2.40
2023-02-27T23:36:05.321Z,3.10
2023-02-27T23:38:32.304Z,3.15
2023-02-27T23:41:08.305Z,3.15
2023-02-27T23:43:36.058Z,2.90
2023-02-27T23:46:08.007Z,3.58
2023-02-27T23:48:35.348Z,2.83
2023-02-27T23:51:04.519Z,2.15
2023-02-27T23:53:32.553Z,2.50
2023-02-27T23:55:59.950Z,2.78
2023-02-27T23:58:27.005Z,3.00
